Terminal Aerodrome Forecast
Issued by NWS

Home | Current Version | Previous Version | Graphics & Text | Print | Product List | Glossary On
Versions: 1 2 3 4 5 6 7 8 9 10 11 12 13 14 15 16 17 18 19 20 21 22 23 24 25 26 27 28 29 30 31 32
000
FTUS43 KLOT 301500 AAB
TAFMDW
TAF AMD
KMDW 301558Z 3016/3112 20015G22KT P6SM BKN020 OVC030
     FM310100 23008KT P6SM BKN250
     FM310500 VRB03KT 4SM BR SCT007
     FM310800 VRB03KT 2SM BR BKN015
      TEMPO 3108/3112 OVC007=

USA.gov is the U.S. government's official web portal to all federal, state and local government web resources and services.